Terminal Aerodrome Forecast
Issued by NWS Pocatello, ID

Home | Current Version | Previous Version | Text Only | Print | Product List | Glossary On
Versions: 1 2 3 4 5 6 7 8 9 10 11 12 13 14 15 16 17 18 19 20 21 22 23 24 25 26 27 28 29 30
111
FTUS45 KPIH 030540
TAFPIH
TAF
KPIH 030540Z 0306/0406 24007KT P6SM FEW015 SCT025 OVC100
     FM030900 18005KT P6SM VCFG SCT004 BKN008 OVC015
     FM031800 21012G22KT P6SM SCT025 OVC035
     FM040300 20010KT P6SM BKN035 OVC050=

USA.gov is the U.S. government's official web portal to all federal, state and local government web resources and services.